Time;durP1;ratioP1;P1;durP2;ratioP2;P2;SDS_P1;SDS_P2;PMS_P1;PMS_P2;Temp;Humidity;BMP_temperature;BMP_pressure;BME280_temperature;BME280_humidity;BME280_pressure;Samples;Min_cycle;Max_cycle;Signal;HPM_P1;HPM_P2
2023/06/06 00:01:09;;;;;;;12.15;5.25;;;;;;;;;;5008235;28;20097;-72
2023/06/06 00:03:36;;;;;;;12.63;5.40;;;;;;;;;;5012455;28;20025;-71
2023/06/06 00:06:02;;;;;;;11.38;5.05;;;;;;;;;;5012745;28;20084;-72
2023/06/06 00:08:28;;;;;;;9.73;5.30;;;;;;;;;;5015600;28;20033;-71
2023/06/06 00:10:57;;;;;;;11.93;5.72;;;;;;;;;;5037337;28;20029;-71
2023/06/06 00:13:27;;;;;;;13.40;6.20;;;;;;;;;;5024515;28;20029;-73
2023/06/06 00:15:53;;;;;;;9.48;4.93;;;;;;;;;;5023190;28;20026;-72
2023/06/06 00:18:19;;;;;;;9.27;5.10;;;;;;;;;;5023990;28;20085;-71
2023/06/06 00:20:46;;;;;;;10.48;5.05;;;;;;;;;;5036804;28;20034;-72
2023/06/06 00:23:12;;;;;;;10.98;4.68;;;;;;;;;;5029619;28;20022;-71
2023/06/06 00:25:38;;;;;;;9.13;4.60;;;;;;;;;;5014426;28;20104;-72
2023/06/06 00:28:04;;;;;;;14.05;5.85;;;;;;;;;;5014530;28;20041;-72
2023/06/06 00:30:30;;;;;;;10.45;5.07;;;;;;;;;;5014700;28;20450;-72
2023/06/06 00:32:56;;;;;;;11.52;5.28;;;;;;;;;;5012172;28;20049;-71
2023/06/06 00:35:22;;;;;;;10.40;4.95;;;;;;;;;;5012501;28;20387;-72
2023/06/06 00:37:48;;;;;;;9.32;5.43;;;;;;;;;;5012326;28;20029;-71
2023/06/06 00:40:14;;;;;;;9.77;5.45;;;;;;;;;;5011724;28;20543;-71
2023/06/06 00:42:40;;;;;;;7.85;4.85;;;;;;;;;;5012134;28;20029;-71
2023/06/06 00:45:06;;;;;;;8.20;4.80;;;;;;;;;;5012269;28;20369;-71
2023/06/06 00:47:33;;;;;;;9.13;5.10;;;;;;;;;;5012281;28;20061;-71
2023/06/06 00:49:59;;;;;;;10.77;5.20;;;;;;;;;;5027122;28;20537;-71
2023/06/06 00:52:25;;;;;;;10.95;5.68;;;;;;;;;;5012224;28;20022;-70
2023/06/06 00:54:51;;;;;;;15.63;5.07;;;;;;;;;;5012144;28;20096;-70
2023/06/06 00:57:18;;;;;;;13.40;5.07;;;;;;;;;;5012126;28;20025;-71
2023/06/06 00:59:45;;;;;;;9.85;4.50;;;;;;;;;;5012224;28;20108;-72
2023/06/06 01:02:14;;;;;;;12.88;5.00;;;;;;;;;;5011920;28;20048;-71
2023/06/06 01:04:40;;;;;;;12.52;5.28;;;;;;;;;;5012102;28;20029;-71
2023/06/06 01:07:07;;;;;;;10.23;4.45;;;;;;;;;;5012502;28;20033;-71
2023/06/06 01:09:34;;;;;;;12.77;4.70;;;;;;;;;;5012458;28;20029;-70
2023/06/06 01:12:09;;;;;;;14.40;5.25;;;;;;;;;;5012228;28;20528;-71
2023/06/06 01:14:58;;;;;;;9.90;5.20;;;;;;;;;;5012421;28;20022;-71
2023/06/06 01:17:25;;;;;;;11.80;5.50;;;;;;;;;;5006575;28;20464;-70
2023/06/06 01:19:53;;;;;;;9.82;5.47;;;;;;;;;;5011939;28;20034;-70
2023/06/06 01:22:22;;;;;;;13.50;5.35;;;;;;;;;;5011668;28;20038;-72
2023/06/06 01:24:51;;;;;;;11.93;5.40;;;;;;;;;;5011891;28;20484;-71
2023/06/06 01:27:17;;;;;;;14.85;6.20;;;;;;;;;;5011765;28;20033;-72
2023/06/06 01:29:43;;;;;;;8.43;5.40;;;;;;;;;;5011814;28;20054;-72
2023/06/06 01:32:16;;;;;;;13.50;5.30;;;;;;;;;;5011925;28;20021;-70
2023/06/06 01:34:45;;;;;;;11.40;6.00;;;;;;;;;;5012841;28;20382;-72
2023/06/06 01:37:19;;;;;;;16.98;6.40;;;;;;;;;;5009640;28;20113;-71
2023/06/06 01:39:47;;;;;;;16.02;6.38;;;;;;;;;;5011688;28;20052;-71
2023/06/06 01:42:14;;;;;;;14.27;6.00;;;;;;;;;;5011047;28;20084;-71
2023/06/06 01:44:40;;;;;;;12.02;6.05;;;;;;;;;;5011557;28;20034;-72
2023/06/06 01:47:06;;;;;;;12.57;6.15;;;;;;;;;;5011484;28;20376;-72
2023/06/06 01:49:33;;;;;;;12.65;5.75;;;;;;;;;;5011338;28;20037;-72
2023/06/06 01:51:59;;;;;;;11.48;6.47;;;;;;;;;;5012464;28;20026;-72
2023/06/06 01:54:26;;;;;;;11.88;6.57;;;;;;;;;;5013281;28;20025;-72
2023/06/06 01:56:52;;;;;;;15.80;6.00;;;;;;;;;;5011607;28;20087;-71
2023/06/06 01:59:18;;;;;;;12.45;6.53;;;;;;;;;;5014937;28;20022;-72
2023/06/06 02:01:44;;;;;;;14.98;6.68;;;;;;;;;;5014278;28;20036;-70
2023/06/06 02:04:10;;;;;;;15.65;6.70;;;;;;;;;;5014609;28;20026;-71
2023/06/06 02:06:36;;;;;;;13.65;6.68;;;;;;;;;;5014401;28;20034;-71
2023/06/06 02:09:02;;;;;;;13.80;6.85;;;;;;;;;;5015134;28;21373;-71
2023/06/06 02:11:29;;;;;;;13.50;6.90;;;;;;;;;;5015066;28;20060;-70
2023/06/06 02:13:57;;;;;;;14.65;7.28;;;;;;;;;;5013360;28;20559;-71
2023/06/06 02:16:23;;;;;;;14.63;7.53;;;;;;;;;;5014296;28;20136;-71
2023/06/06 02:18:49;;;;;;;14.80;7.60;;;;;;;;;;5013240;28;20026;-70
2023/06/06 02:21:15;;;;;;;16.83;7.68;;;;;;;;;;5014586;28;20092;-72
2023/06/06 02:23:41;;;;;;;11.65;7.15;;;;;;;;;;5013955;28;20030;-70
2023/06/06 02:26:09;;;;;;;19.38;7.18;;;;;;;;;;5014452;28;20032;-71
2023/06/06 02:28:35;;;;;;;10.70;6.75;;;;;;;;;;5014220;28;20097;-70
2023/06/06 02:31:03;;;;;;;12.10;7.03;;;;;;;;;;5014366;28;20101;-71
2023/06/06 02:33:29;;;;;;;14.38;6.97;;;;;;;;;;5014052;28;20021;-70
2023/06/06 02:35:55;;;;;;;14.70;7.20;;;;;;;;;;5014345;28;20433;-71
2023/06/06 02:38:22;;;;;;;14.70;7.90;;;;;;;;;;5013833;28;20058;-70
2023/06/06 02:40:48;;;;;;;13.45;7.07;;;;;;;;;;5013345;28;20506;-73
2023/06/06 02:43:15;;;;;;;13.50;7.43;;;;;;;;;;5012690;28;20034;-71
2023/06/06 02:45:41;;;;;;;17.00;8.25;;;;;;;;;;5012658;28;20041;-72
2023/06/06 02:48:07;;;;;;;20.65;9.15;;;;;;;;;;5013912;28;20034;-71
2023/06/06 02:50:33;;;;;;;20.27;10.65;;;;;;;;;;5014493;28;20488;-71
2023/06/06 02:53:03;;;;;;;16.33;9.20;;;;;;;;;;5013607;28;20029;-73
2023/06/06 02:55:29;;;;;;;17.55;8.70;;;;;;;;;;5012897;28;20026;-70
2023/06/06 02:57:55;;;;;;;20.25;7.90;;;;;;;;;;5011846;28;20098;-71
2023/06/06 03:00:21;;;;;;;19.77;9.32;;;;;;;;;;5012593;28;20562;-70
2023/06/06 03:02:47;;;;;;;15.70;9.10;;;;;;;;;;5010712;28;20096;-71
2023/06/06 03:05:13;;;;;;;18.13;8.93;;;;;;;;;;5012505;28;20030;-70
2023/06/06 03:07:40;;;;;;;17.55;9.07;;;;;;;;;;5013004;28;20113;-71
2023/06/06 03:10:06;;;;;;;15.57;9.20;;;;;;;;;;5012777;28;20407;-72
2023/06/06 03:12:32;;;;;;;19.20;8.43;;;;;;;;;;5010487;28;20049;-72
2023/06/06 03:14:58;;;;;;;20.70;9.35;;;;;;;;;;5012614;28;20068;-71
2023/06/06 03:17:25;;;;;;;16.95;9.43;;;;;;;;;;5014133;28;20034;-71
2023/06/06 03:19:51;;;;;;;16.60;8.57;;;;;;;;;;5014552;28;20030;-71
2023/06/06 03:22:17;;;;;;;19.75;9.10;;;;;;;;;;5018794;28;20034;-71
2023/06/06 03:24:45;;;;;;;21.48;9.48;;;;;;;;;;5016316;28;20026;-71
2023/06/06 03:27:12;;;;;;;15.73;9.02;;;;;;;;;;5012465;28;20456;-71
2023/06/06 03:29:39;;;;;;;19.17;10.23;;;;;;;;;;5012450;28;20399;-72
2023/06/06 03:32:05;;;;;;;18.02;9.68;;;;;;;;;;5011962;28;20398;-71
2023/06/06 03:34:32;;;;;;;19.80;9.77;;;;;;;;;;5012390;28;20464;-72
2023/06/06 03:36:58;;;;;;;18.90;9.65;;;;;;;;;;5012722;28;20468;-71
2023/06/06 03:39:24;;;;;;;16.65;9.50;;;;;;;;;;5013161;28;20105;-72
2023/06/06 03:41:50;;;;;;;19.23;10.18;;;;;;;;;;5012882;28;20527;-71
2023/06/06 03:44:16;;;;;;;18.92;10.13;;;;;;;;;;5013280;28;20026;-72
2023/06/06 03:46:42;;;;;;;19.65;10.27;;;;;;;;;;5013184;28;20435;-71
2023/06/06 03:49:08;;;;;;;20.05;10.27;;;;;;;;;;5012983;28;20029;-71
2023/06/06 03:51:35;;;;;;;20.65;11.05;;;;;;;;;;5012935;28;20023;-70
2023/06/06 03:54:01;;;;;;;18.77;10.52;;;;;;;;;;5013448;28;20022;-71
2023/06/06 03:56:27;;;;;;;22.90;11.65;;;;;;;;;;5013819;28;20018;-72
2023/06/06 03:58:53;;;;;;;22.50;10.63;;;;;;;;;;5013936;28;20037;-71
2023/06/06 04:01:20;;;;;;;22.50;10.48;;;;;;;;;;5013868;28;20080;-71
2023/06/06 04:03:47;;;;;;;17.02;10.82;;;;;;;;;;5014089;28;20026;-72
2023/06/06 04:06:14;;;;;;;19.33;10.70;;;;;;;;;;5012886;28;20026;-72
2023/06/06 04:08:40;;;;;;;17.48;10.88;;;;;;;;;;5013610;28;20379;-73
2023/06/06 04:11:06;;;;;;;20.23;11.40;;;;;;;;;;5012950;28;20036;-72
2023/06/06 04:13:32;;;;;;;22.83;11.10;;;;;;;;;;5013929;28;20061;-73
2023/06/06 04:15:58;;;;;;;22.25;11.27;;;;;;;;;;5012570;28;20022;-72
2023/06/06 04:18:25;;;;;;;23.55;10.68;;;;;;;;;;5013939;28;20025;-72
2023/06/06 04:20:53;;;;;;;18.58;10.80;;;;;;;;;;5013493;28;20026;-71
2023/06/06 04:23:20;;;;;;;15.98;10.38;;;;;;;;;;5012478;28;20025;-71
2023/06/06 04:25:46;;;;;;;17.95;10.98;;;;;;;;;;5012867;28;20120;-74
2023/06/06 04:28:17;;;;;;;21.95;11.65;;;;;;;;;;5012560;28;20066;-72
2023/06/06 04:30:45;;;;;;;24.77;13.07;;;;;;;;;;5008714;28;20026;-72
2023/06/06 04:33:11;;;;;;;23.33;12.48;;;;;;;;;;5011618;28;20476;-72
2023/06/06 04:35:42;;;;;;;21.95;12.35;;;;;;;;;;5012099;28;20456;-74
2023/06/06 04:38:08;;;;;;;16.38;11.25;;;;;;;;;;5006652;28;20097;-73
2023/06/06 04:40:35;;;;;;;22.90;12.02;;;;;;;;;;5005775;28;20034;-71
2023/06/06 04:43:01;;;;;;;25.60;12.35;;;;;;;;;;5011558;28;20033;-72
2023/06/06 04:45:27;;;;;;;25.02;12.52;;;;;;;;;;5011794;28;20113;-72
2023/06/06 04:47:55;;;;;;;33.83;12.55;;;;;;;;;;5011932;28;20029;-73
2023/06/06 04:50:23;;;;;;;23.00;12.15;;;;;;;;;;5010083;28;20029;-73
2023/06/06 04:52:49;;;;;;;20.48;12.10;;;;;;;;;;5011407;28;20049;-72
2023/06/06 04:55:15;;;;;;;25.23;13.02;;;;;;;;;;5015380;28;20380;-74
2023/06/06 04:57:44;;;;;;;22.27;12.35;;;;;;;;;;5010052;28;20041;-73
2023/06/06 05:00:12;;;;;;;28.02;13.05;;;;;;;;;;5012091;28;20018;-73
2023/06/06 05:02:39;;;;;;;22.13;11.77;;;;;;;;;;5011259;28;20117;-72
2023/06/06 05:05:09;;;;;;;24.95;12.63;;;;;;;;;;5011936;28;20022;-73
2023/06/06 05:07:35;;;;;;;21.65;12.38;;;;;;;;;;5011337;28;20057;-71
2023/06/06 05:10:01;;;;;;;27.02;13.27;;;;;;;;;;5011535;28;20030;-73
2023/06/06 05:12:27;;;;;;;23.65;14.27;;;;;;;;;;5011412;28;20441;-72
2023/06/06 05:14:53;;;;;;;22.73;13.30;;;;;;;;;;5012080;28;20018;-71
2023/06/06 05:17:20;;;;;;;22.95;13.20;;;;;;;;;;5011875;28;20464;-71
2023/06/06 05:19:46;;;;;;;20.75;12.60;;;;;;;;;;5008262;28;20518;-73
2023/06/06 05:22:15;;;;;;;25.95;12.23;;;;;;;;;;5016381;28;20030;-70
2023/06/06 05:24:42;;;;;;;23.48;12.73;;;;;;;;;;5014518;28;20026;-71
2023/06/06 05:27:08;;;;;;;26.58;12.60;;;;;;;;;;5016566;28;20112;-72
2023/06/06 05:29:35;;;;;;;28.13;12.30;;;;;;;;;;5015480;28;20100;-71
2023/06/06 05:32:01;;;;;;;22.50;11.27;;;;;;;;;;5014784;28;20104;-70
2023/06/06 05:34:27;;;;;;;22.20;12.18;;;;;;;;;;5015932;28;20519;-73
2023/06/06 05:36:53;;;;;;;23.10;11.85;;;;;;;;;;5015823;28;20112;-71
2023/06/06 05:39:19;;;;;;;27.35;13.18;;;;;;;;;;5015714;28;20026;-70
2023/06/06 05:41:47;;;;;;;28.02;12.32;;;;;;;;;;5015932;28;20022;-71
2023/06/06 05:44:14;;;;;;;21.58;12.25;;;;;;;;;;5016960;28;20038;-74
2023/06/06 05:46:40;;;;;;;26.27;12.65;;;;;;;;;;5014553;28;20061;-76
2023/06/06 05:49:06;;;;;;;23.05;12.10;;;;;;;;;;5020703;28;20033;-77
2023/06/06 05:51:32;;;;;;;23.40;12.50;;;;;;;;;;5020866;28;20084;-74
2023/06/06 05:53:58;;;;;;;22.75;12.18;;;;;;;;;;5018840;28;20025;-74
2023/06/06 05:56:24;;;;;;;24.92;12.52;;;;;;;;;;5020153;28;20026;-73
2023/06/06 05:58:52;;;;;;;24.55;12.50;;;;;;;;;;5020027;28;20018;-73
2023/06/06 06:01:20;;;;;;;27.48;11.70;;;;;;;;;;5020143;28;20108;-74
2023/06/06 06:03:48;;;;;;;21.67;12.70;;;;;;;;;;5019731;28;20049;-75
2023/06/06 06:06:14;;;;;;;23.58;12.05;;;;;;;;;;5017585;28;20026;-77
2023/06/06 06:08:41;;;;;;;22.17;11.50;;;;;;;;;;5021326;28;20074;-75
2023/06/06 06:11:07;;;;;;;23.55;11.93;;;;;;;;;;5018866;28;20018;-74
2023/06/06 06:13:34;;;;;;;27.38;11.82;;;;;;;;;;5020885;28;20431;-75
2023/06/06 06:16:01;;;;;;;22.83;10.90;;;;;;;;;;5019471;28;20029;-75
2023/06/06 06:18:27;;;;;;;21.70;11.48;;;;;;;;;;5021249;28;20128;-76
2023/06/06 06:20:53;;;;;;;22.27;11.30;;;;;;;;;;5022238;28;20054;-74
2023/06/06 06:23:19;;;;;;;27.63;10.57;;;;;;;;;;5021182;28;20030;-74
2023/06/06 06:25:45;;;;;;;20.10;10.68;;;;;;;;;;5015266;28;20361;-75
2023/06/06 06:28:18;;;;;;;25.48;11.32;;;;;;;;;;5015057;28;20026;-77
2023/06/06 06:30:44;;;;;;;19.15;10.00;;;;;;;;;;5018375;28;20112;-73
2023/06/06 06:33:11;;;;;;;16.98;9.63;;;;;;;;;;5014540;28;20569;-71
2023/06/06 06:35:37;;;;;;;20.73;9.98;;;;;;;;;;5015194;28;20440;-71
2023/06/06 06:38:03;;;;;;;18.45;9.40;;;;;;;;;;5015356;28;20507;-71
2023/06/06 06:40:29;;;;;;;28.67;9.50;;;;;;;;;;5020383;28;20038;-72
2023/06/06 06:42:55;;;;;;;19.20;9.50;;;;;;;;;;5018437;28;20022;-71
2023/06/06 06:45:23;;;;;;;19.55;8.50;;;;;;;;;;5017037;28;20227;-71
2023/06/06 06:47:49;;;;;;;22.50;10.07;;;;;;;;;;5013981;28;20030;-71
2023/06/06 06:50:15;;;;;;;20.60;8.93;;;;;;;;;;5012906;28;20030;-71
2023/06/06 06:52:41;;;;;;;20.35;8.93;;;;;;;;;;5013075;28;20029;-74
2023/06/06 06:55:09;;;;;;;19.30;8.43;;;;;;;;;;5013664;28;20026;-73
2023/06/06 06:57:36;;;;;;;21.67;10.02;;;;;;;;;;5014232;28;20022;-73
2023/06/06 07:00:14;;;;;;;20.20;8.73;;;;;;;;;;5013854;28;20026;-70
2023/06/06 07:02:42;;;;;;;19.98;9.05;;;;;;;;;;5012200;28;20033;-70
2023/06/06 07:05:09;;;;;;;19.20;7.40;;;;;;;;;;5013509;28;20018;-71
2023/06/06 07:07:35;;;;;;;19.60;7.05;;;;;;;;;;5011693;28;20033;-70
2023/06/06 07:10:01;;;;;;;12.52;6.75;;;;;;;;;;5013087;28;20021;-73
2023/06/06 07:12:27;;;;;;;14.00;6.43;;;;;;;;;;5010684;28;20448;-72
2023/06/06 07:14:53;;;;;;;18.13;7.63;;;;;;;;;;5013190;28;20026;-71
2023/06/06 07:17:20;;;;;;;20.00;7.95;;;;;;;;;;5014477;28;20033;-71
2023/06/06 07:19:46;;;;;;;12.77;5.97;;;;;;;;;;5013756;28;20030;-71
2023/06/06 07:22:12;;;;;;;15.30;6.22;;;;;;;;;;5012959;28;20033;-72
2023/06/06 07:24:38;;;;;;;11.30;5.57;;;;;;;;;;5012810;28;20037;-71
2023/06/06 07:27:04;;;;;;;20.00;5.60;;;;;;;;;;5011992;28;20073;-73
2023/06/06 07:29:30;;;;;;;13.85;5.35;;;;;;;;;;5013548;28;20639;-71
2023/06/06 07:31:56;;;;;;;14.75;5.72;;;;;;;;;;5011687;28;20026;-71
2023/06/06 07:34:23;;;;;;;20.25;5.78;;;;;;;;;;5013558;28;20519;-72
2023/06/06 07:36:49;;;;;;;13.32;5.10;;;;;;;;;;5012890;28;20031;-71
2023/06/06 07:39:15;;;;;;;14.43;5.65;;;;;;;;;;5012570;28;20411;-73
2023/06/06 07:41:41;;;;;;;13.85;4.95;;;;;;;;;;5009308;28;20033;-73
2023/06/06 07:44:07;;;;;;;15.95;5.47;;;;;;;;;;5012027;28;20116;-71
2023/06/06 07:46:33;;;;;;;13.65;5.28;;;;;;;;;;5011613;28;20105;-70
2023/06/06 07:48:59;;;;;;;12.32;4.10;;;;;;;;;;5012114;28;20387;-72
2023/06/06 07:51:25;;;;;;;15.82;5.00;;;;;;;;;;5010923;28;20049;-71
2023/06/06 07:53:52;;;;;;;12.15;5.13;;;;;;;;;;5011812;28;20675;-71
2023/06/06 07:56:18;;;;;;;10.52;4.88;;;;;;;;;;5012581;28;20018;-73
2023/06/06 07:58:54;;;;;;;14.05;5.05;;;;;;;;;;5014049;28;20467;-70
2023/06/06 08:01:21;;;;;;;9.90;4.30;;;;;;;;;;5012430;28;20026;-72
2023/06/06 08:03:50;;;;;;;14.32;4.50;;;;;;;;;;5013428;28;20033;-73
2023/06/06 08:06:20;;;;;;;10.93;4.07;;;;;;;;;;5013569;28;20041;-73
2023/06/06 08:08:48;;;;;;;13.80;4.82;;;;;;;;;;5012681;28;20084;-72
2023/06/06 08:11:14;;;;;;;10.68;4.60;;;;;;;;;;5012884;28;20026;-75
2023/06/06 08:13:40;;;;;;;10.73;4.22;;;;;;;;;;5012740;28;20510;-72
2023/06/06 08:16:06;;;;;;;9.43;4.57;;;;;;;;;;5013719;28;20472;-71
2023/06/06 08:18:32;;;;;;;12.90;4.55;;;;;;;;;;5013872;28;20033;-71
2023/06/06 08:20:58;;;;;;;10.40;4.20;;;;;;;;;;5013705;28;20037;-71
2023/06/06 08:23:24;;;;;;;13.05;4.47;;;;;;;;;;5012831;28;20022;-72
2023/06/06 08:25:55;;;;;;;13.10;4.10;;;;;;;;;;5013236;28;20025;-71
2023/06/06 08:28:25;;;;;;;15.80;4.57;;;;;;;;;;5013765;28;20030;-71
2023/06/06 08:30:54;;;;;;;16.50;4.25;;;;;;;;;;5014246;28;20030;-72
2023/06/06 08:33:20;;;;;;;14.85;4.60;;;;;;;;;;5013522;28;20050;-72
2023/06/06 08:35:46;;;;;;;13.25;5.32;;;;;;;;;;5014972;28;20427;-71
2023/06/06 08:38:13;;;;;;;10.13;4.03;;;;;;;;;;5014959;28;20432;-70
2023/06/06 08:40:39;;;;;;;12.82;4.32;;;;;;;;;;5014869;28;20022;-73
2023/06/06 08:43:10;;;;;;;11.70;4.60;;;;;;;;;;5014936;28;20025;-71
2023/06/06 08:45:37;;;;;;;11.57;3.80;;;;;;;;;;5019191;28;20040;-71
2023/06/06 08:48:04;;;;;;;9.25;3.78;;;;;;;;;;5020026;28;20468;-72
2023/06/06 08:50:30;;;;;;;11.98;4.00;;;;;;;;;;5019064;28;20036;-72
2023/06/06 08:52:56;;;;;;;13.05;3.75;;;;;;;;;;5013071;28;20125;-73
2023/06/06 08:55:22;;;;;;;12.68;4.15;;;;;;;;;;5013224;28;20487;-71
2023/06/06 08:57:49;;;;;;;11.80;4.80;;;;;;;;;;5012657;28;20058;-71
2023/06/06 09:00:21;;;;;;;11.95;3.72;;;;;;;;;;5012019;28;20053;-72
2023/06/06 09:02:47;;;;;;;9.65;4.20;;;;;;;;;;5011357;28;20022;-71
2023/06/06 09:05:15;;;;;;;10.35;3.72;;;;;;;;;;5012218;28;20383;-71
2023/06/06 09:07:41;;;;;;;9.13;3.78;;;;;;;;;;5012189;28;20064;-71
2023/06/06 09:10:07;;;;;;;9.45;3.97;;;;;;;;;;5011575;28;20026;-71
2023/06/06 09:12:40;;;;;;;11.82;4.35;;;;;;;;;;5010629;28;20025;-71
2023/06/06 09:15:07;;;;;;;8.55;3.63;;;;;;;;;;5012209;28;20076;-71
2023/06/06 09:17:36;;;;;;;19.38;4.78;;;;;;;;;;5012271;28;20451;-72
2023/06/06 09:20:12;;;;;;;13.50;4.35;;;;;;;;;;5011952;28;20105;-76
2023/06/06 09:22:38;;;;;;;10.90;4.03;;;;;;;;;;5011739;28;20030;-72
2023/06/06 09:25:05;;;;;;;16.02;4.00;;;;;;;;;;5012032;28;20084;-71
2023/06/06 09:27:31;;;;;;;14.40;3.92;;;;;;;;;;5012117;28;20113;-71
2023/06/06 09:29:57;;;;;;;12.15;4.00;;;;;;;;;;5011635;28;20096;-71
2023/06/06 09:32:28;;;;;;;13.77;4.53;;;;;;;;;;5011665;28;20057;-72
2023/06/06 09:34:54;;;;;;;11.77;3.30;;;;;;;;;;5012009;28;20101;-72
2023/06/06 09:37:23;;;;;;;15.15;4.20;;;;;;;;;;5011728;28;20060;-71
2023/06/06 09:40:09;;;;;;;12.80;4.00;;;;;;;;;;5011628;28;20034;-71
2023/06/06 09:42:37;;;;;;;12.73;3.70;;;;;;;;;;5011082;28;20079;-71
2023/06/06 09:45:06;;;;;;;14.80;3.97;;;;;;;;;;5011495;28;20022;-73
2023/06/06 09:47:32;;;;;;;11.15;3.60;;;;;;;;;;5011612;28;20034;-74
2023/06/06 09:49:58;;;;;;;10.05;3.65;;;;;;;;;;5011290;28;20029;-71
2023/06/06 09:52:24;;;;;;;9.45;3.40;;;;;;;;;;5011322;28;20030;-72
2023/06/06 09:54:50;;;;;;;10.18;3.83;;;;;;;;;;5011897;28;20030;-73
2023/06/06 09:57:16;;;;;;;9.93;3.50;;;;;;;;;;5012451;28;20025;-73
2023/06/06 09:59:45;;;;;;;10.57;3.08;;;;;;;;;;5012396;28;20065;-73
2023/06/06 10:02:11;;;;;;;16.23;6.68;;;;;;;;;;5012492;28;20419;-71
2023/06/06 10:04:37;;;;;;;13.65;4.88;;;;;;;;;;5011679;28;20034;-72
2023/06/06 10:07:04;;;;;;;9.95;4.45;;;;;;;;;;5011187;28;20037;-72
2023/06/06 10:09:31;;;;;;;16.77;4.63;;;;;;;;;;5011638;28;20030;-72
2023/06/06 10:11:58;;;;;;;13.90;4.15;;;;;;;;;;5010826;28;20022;-74
2023/06/06 10:14:24;;;;;;;19.98;5.13;;;;;;;;;;5015946;28;20026;-74
2023/06/06 10:16:50;;;;;;;9.23;3.40;;;;;;;;;;5016506;28;20344;-74
2023/06/06 10:19:18;;;;;;;8.95;3.80;;;;;;;;;;5015193;28;20033;-72
2023/06/06 10:21:45;;;;;;;9.55;3.58;;;;;;;;;;5014994;28;20510;-72
2023/06/06 10:24:11;;;;;;;11.73;3.10;;;;;;;;;;5019365;28;20052;-74
2023/06/06 10:26:47;;;;;;;14.82;3.88;;;;;;;;;;5016804;28;20026;-73
2023/06/06 10:29:32;;;;;;;10.57;4.00;;;;;;;;;;5017442;28;20022;-73
2023/06/06 10:31:59;;;;;;;6.57;3.55;;;;;;;;;;5016352;28;20018;-71
2023/06/06 10:34:29;;;;;;;10.23;3.50;;;;;;;;;;5015860;28;20044;-72
2023/06/06 10:36:56;;;;;;;11.02;3.03;;;;;;;;;;5015525;28;20037;-71
2023/06/06 10:39:23;;;;;;;9.88;3.28;;;;;;;;;;5014682;28;20040;-71
2023/06/06 10:41:51;;;;;;;10.50;3.40;;;;;;;;;;5014578;28;20018;-71
2023/06/06 10:44:19;;;;;;;9.23;3.33;;;;;;;;;;5014329;28;20030;-71
2023/06/06 10:46:48;;;;;;;6.32;3.15;;;;;;;;;;5014666;28;20018;-71
2023/06/06 10:49:14;;;;;;;10.60;5.13;;;;;;;;;;5014577;28;20037;-72
2023/06/06 10:51:40;;;;;;;10.05;3.25;;;;;;;;;;5014608;28;20025;-73
2023/06/06 10:54:26;;;;;;;13.27;3.63;;;;;;;;;;5015049;28;20388;-72
2023/06/06 10:56:52;;;;;;;14.18;4.30;;;;;;;;;;4997418;28;20495;-73
2023/06/06 10:59:21;;;;;;;13.27;3.33;;;;;;;;;;5015593;28;20431;-72
2023/06/06 11:01:47;;;;;;;19.83;4.20;;;;;;;;;;5014946;28;20037;-72
2023/06/06 11:04:17;;;;;;;8.48;3.95;;;;;;;;;;5014733;28;20022;-71
2023/06/06 11:06:44;;;;;;;10.60;3.80;;;;;;;;;;5014697;28;20388;-71
2023/06/06 11:09:19;;;;;;;8.88;3.53;;;;;;;;;;5014155;28;20045;-71
2023/06/06 11:11:45;;;;;;;7.35;3.35;;;;;;;;;;5012649;28;20029;-72
2023/06/06 11:14:11;;;;;;;12.27;3.17;;;;;;;;;;5014320;28;20018;-72
2023/06/06 11:16:40;;;;;;;8.00;3.40;;;;;;;;;;5014262;28;20022;-71
2023/06/06 11:19:08;;;;;;;10.95;3.97;;;;;;;;;;5014108;28;20022;-71
2023/06/06 11:21:37;;;;;;;8.32;4.10;;;;;;;;;;5014004;28;20018;-71
2023/06/06 11:24:07;;;;;;;10.07;3.50;;;;;;;;;;5013252;28;20030;-71
2023/06/06 11:26:33;;;;;;;9.35;3.53;;;;;;;;;;5013905;28;20220;-72
2023/06/06 11:29:00;;;;;;;8.38;3.90;;;;;;;;;;5013624;28;20030;-72
2023/06/06 11:31:27;;;;;;;8.85;3.17;;;;;;;;;;5013575;28;20495;-71
2023/06/06 11:33:53;;;;;;;11.45;3.65;;;;;;;;;;5013779;28;20384;-72
2023/06/06 11:36:20;;;;;;;9.98;3.40;;;;;;;;;;5014247;28;20415;-73
2023/06/06 11:38:46;;;;;;;6.28;3.10;;;;;;;;;;5014387;28;20026;-72
2023/06/06 11:41:12;;;;;;;8.93;3.10;;;;;;;;;;5014515;28;20026;-72
2023/06/06 11:43:38;;;;;;;8.40;3.80;;;;;;;;;;5013882;28;20030;-73
2023/06/06 11:46:05;;;;;;;7.32;3.10;;;;;;;;;;5014186;28;20022;-72
2023/06/06 11:48:31;;;;;;;10.60;3.80;;;;;;;;;;5013933;28;20037;-71
2023/06/06 11:50:57;;;;;;;6.85;3.50;;;;;;;;;;5013999;28;20030;-71
2023/06/06 11:53:30;;;;;;;8.05;3.13;;;;;;;;;;5013662;28;20048;-71
2023/06/06 11:55:56;;;;;;;11.27;3.30;;;;;;;;;;5013699;28;20076;-72
2023/06/06 11:58:24;;;;;;;9.45;3.15;;;;;;;;;;5014027;28;20028;-73
2023/06/06 12:00:55;;;;;;;14.73;3.08;;;;;;;;;;5015091;28;20038;-75
2023/06/06 12:03:22;;;;;;;9.25;3.15;;;;;;;;;;5014114;28;20026;-72
2023/06/06 12:06:06;;;;;;;5.25;2.53;;;;;;;;;;5014065;28;20025;-71
2023/06/06 12:08:35;;;;;;;;;;;;;;;;;;5012366;28;20427;-72
2023/06/06 12:11:23;;;;;;;11.18;3.30;;;;;;;;;;5013389;28;19914;-73
2023/06/06 12:13:49;;;;;;;6.30;2.90;;;;;;;;;;5013511;28;20029;-71
2023/06/06 12:16:26;;;;;;;6.18;3.08;;;;;;;;;;5016543;28;20097;-72
2023/06/06 12:18:52;;;;;;;6.18;3.20;;;;;;;;;;5015153;28;20032;-74
2023/06/06 12:21:18;;;;;;;12.85;3.10;;;;;;;;;;5014223;28;20570;-72
2023/06/06 12:23:45;;;;;;;8.07;3.17;;;;;;;;;;5013438;28;20091;-72
2023/06/06 12:26:12;;;;;;;7.05;3.38;;;;;;;;;;5013238;28;20110;-72
2023/06/06 12:28:56;;;;;;;9.27;2.80;;;;;;;;;;5012617;28;20033;-73
2023/06/06 12:31:23;;;;;;;8.75;2.75;;;;;;;;;;5013040;28;20037;-72
2023/06/06 12:33:49;;;;;;;10.00;3.08;;;;;;;;;;5012975;28;20105;-73
2023/06/06 12:36:19;;;;;;;9.25;2.83;;;;;;;;;;5012670;28;20018;-73
2023/06/06 12:38:53;;;;;;;6.70;3.28;;;;;;;;;;5014038;28;20488;-72
2023/06/06 12:41:20;;;;;;;;;;;;;;;;;;5012037;28;20037;-72
2023/06/06 12:43:46;;;;;;;6.70;3.17;;;;;;;;;;5011993;28;19953;-73
2023/06/06 12:46:12;;;;;;;10.10;3.40;;;;;;;;;;5012614;28;20029;-72
2023/06/06 12:48:38;;;;;;;19.67;3.45;;;;;;;;;;5012428;28;20029;-71
2023/06/06 12:51:04;;;;;;;8.02;3.30;;;;;;;;;;5012235;28;20056;-74
2023/06/06 12:53:30;;;;;;;8.82;3.00;;;;;;;;;;5011993;28;20022;-73
2023/06/06 12:55:56;;;;;;;8.65;2.22;;;;;;;;;;5013165;28;20022;-72
2023/06/06 12:58:22;;;;;;;11.07;3.22;;;;;;;;;;5012624;28;20109;-73
2023/06/06 13:00:48;;;;;;;6.57;3.15;;;;;;;;;;5011879;28;20054;-73
2023/06/06 13:03:15;;;;;;;11.35;3.05;;;;;;;;;;5011967;28;20109;-73
2023/06/06 13:05:41;;;;;;;10.05;2.85;;;;;;;;;;5012162;28;20144;-73
2023/06/06 13:08:07;;;;;;;6.32;3.40;;;;;;;;;;5012365;28;20110;-72
2023/06/06 13:10:34;;;;;;;7.90;3.08;;;;;;;;;;5011749;28;20485;-72
2023/06/06 13:13:01;;;;;;;8.32;3.30;;;;;;;;;;5011837;28;20034;-72
2023/06/06 13:15:30;;;;;;;11.55;3.33;;;;;;;;;;5012204;28;20018;-72
2023/06/06 13:17:57;;;;;;;10.45;3.53;;;;;;;;;;5012083;28;20030;-72
2023/06/06 13:20:24;;;;;;;5.40;2.80;;;;;;;;;;5011784;28;20025;-72
2023/06/06 13:22:50;;;;;;;7.10;3.88;;;;;;;;;;5014213;28;20515;-74
2023/06/06 13:25:18;;;;;;;13.45;3.20;;;;;;;;;;5013760;28;20033;-71
2023/06/06 13:27:44;;;;;;;9.38;3.05;;;;;;;;;;5012444;28;20022;-73
2023/06/06 13:30:10;;;;;;;9.13;3.10;;;;;;;;;;5012198;28;20383;-73
2023/06/06 13:32:36;;;;;;;5.47;2.85;;;;;;;;;;5013628;28;20018;-73
2023/06/06 13:35:02;;;;;;;13.07;3.40;;;;;;;;;;5013590;28;20486;-75
2023/06/06 13:37:28;;;;;;;6.90;3.20;;;;;;;;;;5013052;28;20105;-73
2023/06/06 13:39:54;;;;;;;8.82;3.88;;;;;;;;;;5012442;28;20021;-72
2023/06/06 13:42:20;;;;;;;11.35;3.63;;;;;;;;;;5013349;28;20033;-75
2023/06/06 13:44:47;;;;;;;12.65;3.40;;;;;;;;;;5012291;28;20056;-72
2023/06/06 13:47:13;;;;;;;10.65;3.22;;;;;;;;;;5013024;28;20152;-73
2023/06/06 13:49:39;;;;;;;8.52;5.50;;;;;;;;;;5015613;28;20030;-71
2023/06/06 13:52:06;;;;;;;13.98;4.20;;;;;;;;;;5016341;28;20475;-72
2023/06/06 13:54:32;;;;;;;8.35;3.72;;;;;;;;;;5015585;28;20475;-73
2023/06/06 13:57:00;;;;;;;8.93;3.55;;;;;;;;;;5016340;28;20040;-73
2023/06/06 13:59:26;;;;;;;6.68;3.38;;;;;;;;;;5015615;28;20476;-73
2023/06/06 14:01:52;;;;;;;6.28;3.00;;;;;;;;;;5016159;28;20112;-72
2023/06/06 14:04:18;;;;;;;9.85;3.58;;;;;;;;;;5012069;28;20026;-71
2023/06/06 14:06:45;;;;;;;8.07;3.05;;;;;;;;;;5030599;28;20085;-72
2023/06/06 14:09:14;;;;;;;13.35;3.83;;;;;;;;;;5034202;28;20112;-72
2023/06/06 14:11:40;;;;;;;8.43;2.90;;;;;;;;;;5034800;28;20116;-74
2023/06/06 14:14:06;;;;;;;10.00;4.25;;;;;;;;;;5034327;28;20030;-73
2023/06/06 14:16:32;;;;;;;8.98;3.65;;;;;;;;;;5034909;28;20048;-72
2023/06/06 14:18:59;;;;;;;8.57;3.50;;;;;;;;;;5022055;28;20026;-73
2023/06/06 14:21:46;;;;;;;10.70;3.35;;;;;;;;;;5016727;28;20387;-76
2023/06/06 14:24:12;;;;;;;7.35;3.47;;;;;;;;;;5015771;28;20029;-74
2023/06/06 14:26:38;;;;;;;10.90;3.92;;;;;;;;;;5017541;28;20480;-72
2023/06/06 14:29:04;;;;;;;8.20;3.42;;;;;;;;;;5015330;28;20029;-74
2023/06/06 14:31:30;;;;;;;7.70;3.88;;;;;;;;;;5015624;28;20525;-72